Strona główna
METAR-TAF:

METAR-TAF

Lotnisko :

Memanbetsu, Japonia

Szerokość geograficzna: 43-53N, Długość geograficzna: 144-10E, wysokość: 33 m

Aktualna obserwacja pogody

Raport powstał 28 minut temu, godzina 23:00 UTC
Wiatr 5 kt od południe
Temperatura 15°C
Wilgotność 59%
Ciśnienie 1012 hPa
Widzialność 10 km lub więcej
Mało chmury na wysokości 5000 ft

METAR: RJCM 272300Z 19005KT 9999 FEW050 15/07 Q1012

czas: 08:28 (23:28 UTC)

Prognoza

Raport powstał 6 godziny i 15 minut temu, godzina 17:13 UTC
Prognoza ważna od 27 godzina 18 UTC do 29 godzina 00 UTC
Wiatr 5 kt od południowo-południowy zachód
Widzialność 10 km lub więcej
Mało chmury na wysokości 3000 ft
Stopniowe zmiany
od 28 godzina 00 UTC do 28 godzina 02 UTC
Wiatr 5 kt od północny wschód
Stopniowe zmiany
od 28 godzina 18 UTC do 28 godzina 21 UTC
Wiatr 5 kt od południe

TAF: RJCM 271713Z 2718/2900 21005KT 9999 FEW030 BECMG 2800/2802 05005KT BECMG 2818/2821 19005KT

Obserwacja i prognoza pogody dla ponad 4000 lotnisk (raport METAR i TAF).

Dostępne stacje oznaczono żółtymi i czerwonymi punktami na mapie.

Najedź kursorem aby zobaczyć nazwę stacji.

Kliknij aby zobaczyć obserwacje i prognozy pogody.

Aby zmienić mapę: kliknij na zielony przycisk z czarnym krzyżykiem, aby powiększyć; na zielony przycisk z myślnikiem, aby pomniejszyć; na zielone strzałki, aby przejść do map sąsiednich.


METAR-TAF: